sensor_id;sensor_type;location;lat;lon;timestamp;P1;durP1;ratioP1;P2;durP2;ratioP2
78844;SDS011;68195;50.854;2.860;2023-06-26T00:00:42;7.38;;;3.63;;
78844;SDS011;68195;50.854;2.860;2023-06-26T00:03:08;7.00;;;3.30;;
78844;SDS011;68195;50.854;2.860;2023-06-26T00:05:33;7.93;;;3.50;;
78844;SDS011;68195;50.854;2.860;2023-06-26T00:07:59;6.55;;;3.05;;
78844;SDS011;68195;50.854;2.860;2023-06-26T00:10:26;8.18;;;3.78;;
78844;SDS011;68195;50.854;2.860;2023-06-26T00:12:52;8.82;;;4.10;;
78844;SDS011;68195;50.854;2.860;2023-06-26T00:15:21;8.77;;;3.60;;
78844;SDS011;68195;50.854;2.860;2023-06-26T00:17:51;8.35;;;3.30;;
78844;SDS011;68195;50.854;2.860;2023-06-26T00:20:16;10.00;;;4.20;;
78844;SDS011;68195;50.854;2.860;2023-06-26T00:22:44;5.60;;;3.30;;
78844;SDS011;68195;50.854;2.860;2023-06-26T00:25:15;7.72;;;3.45;;
78844;SDS011;68195;50.854;2.860;2023-06-26T00:27:41;7.20;;;3.17;;
78844;SDS011;68195;50.854;2.860;2023-06-26T00:30:09;8.18;;;4.05;;
78844;SDS011;68195;50.854;2.860;2023-06-26T00:32:34;9.65;;;3.83;;
78844;SDS011;68195;50.854;2.860;2023-06-26T00:35:00;8.27;;;3.95;;
78844;SDS011;68195;50.854;2.860;2023-06-26T00:37:25;10.00;;;4.00;;
78844;SDS011;68195;50.854;2.860;2023-06-26T00:39:51;9.70;;;3.50;;
78844;SDS011;68195;50.854;2.860;2023-06-26T00:42:21;12.00;;;4.43;;
78844;SDS011;68195;50.854;2.860;2023-06-26T00:44:49;8.73;;;3.72;;
78844;SDS011;68195;50.854;2.860;2023-06-26T00:47:15;9.25;;;4.07;;
78844;SDS011;68195;50.854;2.860;2023-06-26T00:49:41;15.10;;;5.78;;
78844;SDS011;68195;50.854;2.860;2023-06-26T00:52:06;14.25;;;3.92;;
78844;SDS011;68195;50.854;2.860;2023-06-26T00:54:35;12.90;;;3.65;;
78844;SDS011;68195;50.854;2.860;2023-06-26T00:57:03;8.55;;;3.90;;
78844;SDS011;68195;50.854;2.860;2023-06-26T00:59:31;9.43;;;3.95;;
78844;SDS011;68195;50.854;2.860;2023-06-26T01:01:56;14.32;;;3.75;;
78844;SDS011;68195;50.854;2.860;2023-06-26T01:04:22;10.13;;;3.80;;
78844;SDS011;68195;50.854;2.860;2023-06-26T01:06:52;9.05;;;3.88;;
78844;SDS011;68195;50.854;2.860;2023-06-26T01:09:21;10.95;;;4.22;;
78844;SDS011;68195;50.854;2.860;2023-06-26T01:11:51;10.60;;;3.95;;
78844;SDS011;68195;50.854;2.860;2023-06-26T01:14:19;12.35;;;4.38;;
78844;SDS011;68195;50.854;2.860;2023-06-26T01:16:44;9.60;;;3.50;;
78844;SDS011;68195;50.854;2.860;2023-06-26T01:19:25;9.48;;;3.78;;
78844;SDS011;68195;50.854;2.860;2023-06-26T01:24:53;11.25;;;4.03;;
78844;SDS011;68195;50.854;2.860;2023-06-26T01:27:29;12.95;;;4.22;;
78844;SDS011;68195;50.854;2.860;2023-06-26T01:29:57;9.73;;;4.07;;
78844;SDS011;68195;50.854;2.860;2023-06-26T01:32:28;10.45;;;4.32;;
78844;SDS011;68195;50.854;2.860;2023-06-26T01:34:55;12.57;;;3.83;;
78844;SDS011;68195;50.854;2.860;2023-06-26T01:37:22;11.95;;;4.10;;
78844;SDS011;68195;50.854;2.860;2023-06-26T01:39:47;11.60;;;3.63;;
78844;SDS011;68195;50.854;2.860;2023-06-26T01:42:12;9.32;;;3.67;;
78844;SDS011;68195;50.854;2.860;2023-06-26T01:44:40;8.38;;;3.90;;
78844;SDS011;68195;50.854;2.860;2023-06-26T01:47:09;9.85;;;3.67;;
78844;SDS011;68195;50.854;2.860;2023-06-26T01:53:07;11.65;;;4.55;;
78844;SDS011;68195;50.854;2.860;2023-06-26T01:55:51;9.45;;;3.80;;
78844;SDS011;68195;50.854;2.860;2023-06-26T01:58:27;12.63;;;3.38;;
78844;SDS011;68195;50.854;2.860;2023-06-26T02:00:56;10.93;;;3.13;;
78844;SDS011;68195;50.854;2.860;2023-06-26T02:03:24;8.13;;;3.08;;
78844;SDS011;68195;50.854;2.860;2023-06-26T02:05:50;8.88;;;3.45;;
78844;SDS011;68195;50.854;2.860;2023-06-26T02:08:18;12.77;;;3.50;;
78844;SDS011;68195;50.854;2.860;2023-06-26T02:10:43;6.28;;;3.50;;
78844;SDS011;68195;50.854;2.860;2023-06-26T02:13:09;11.38;;;3.92;;
78844;SDS011;68195;50.854;2.860;2023-06-26T02:15:34;10.88;;;3.30;;
78844;SDS011;68195;50.854;2.860;2023-06-26T02:17:59;9.00;;;3.20;;
78844;SDS011;68195;50.854;2.860;2023-06-26T02:20:25;7.13;;;3.22;;
78844;SDS011;68195;50.854;2.860;2023-06-26T02:22:50;11.93;;;3.42;;
78844;SDS011;68195;50.854;2.860;2023-06-26T02:25:18;9.73;;;3.40;;
78844;SDS011;68195;50.854;2.860;2023-06-26T02:27:43;8.93;;;2.85;;
78844;SDS011;68195;50.854;2.860;2023-06-26T02:30:11;5.68;;;2.70;;
78844;SDS011;68195;50.854;2.860;2023-06-26T02:32:36;14.30;;;3.30;;
78844;SDS011;68195;50.854;2.860;2023-06-26T02:35:04;8.05;;;2.47;;
78844;SDS011;68195;50.854;2.860;2023-06-26T02:37:30;8.98;;;2.58;;
78844;SDS011;68195;50.854;2.860;2023-06-26T02:39:58;8.02;;;2.22;;
78844;SDS011;68195;50.854;2.860;2023-06-26T02:42:24;10.07;;;3.00;;
78844;SDS011;68195;50.854;2.860;2023-06-26T02:44:51;9.82;;;3.08;;
78844;SDS011;68195;50.854;2.860;2023-06-26T02:47:22;7.70;;;2.30;;
78844;SDS011;68195;50.854;2.860;2023-06-26T02:49:47;12.35;;;2.20;;
78844;SDS011;68195;50.854;2.860;2023-06-26T02:52:12;6.22;;;2.13;;
78844;SDS011;68195;50.854;2.860;2023-06-26T02:54:40;6.22;;;2.60;;
78844;SDS011;68195;50.854;2.860;2023-06-26T02:57:08;6.65;;;1.90;;
78844;SDS011;68195;50.854;2.860;2023-06-26T02:59:37;7.78;;;2.83;;
78844;SDS011;68195;50.854;2.860;2023-06-26T03:02:07;4.22;;;1.85;;
78844;SDS011;68195;50.854;2.860;2023-06-26T03:04:35;9.18;;;2.40;;
78844;SDS011;68195;50.854;2.860;2023-06-26T03:07:05;10.77;;;2.35;;
78844;SDS011;68195;50.854;2.860;2023-06-26T03:09:30;5.60;;;2.38;;
78844;SDS011;68195;50.854;2.860;2023-06-26T03:11:58;4.13;;;1.63;;
78844;SDS011;68195;50.854;2.860;2023-06-26T03:14:23;7.18;;;2.13;;
78844;SDS011;68195;50.854;2.860;2023-06-26T03:16:49;8.38;;;2.72;;
78844;SDS011;68195;50.854;2.860;2023-06-26T03:19:17;7.38;;;2.83;;
78844;SDS011;68195;50.854;2.860;2023-06-26T03:21:43;8.25;;;2.60;;
78844;SDS011;68195;50.854;2.860;2023-06-26T03:24:08;6.18;;;1.90;;
78844;SDS011;68195;50.854;2.860;2023-06-26T03:26:34;4.65;;;2.22;;
78844;SDS011;68195;50.854;2.860;2023-06-26T03:29:01;5.47;;;2.10;;
78844;SDS011;68195;50.854;2.860;2023-06-26T03:31:27;5.72;;;2.03;;
78844;SDS011;68195;50.854;2.860;2023-06-26T03:33:52;4.20;;;1.75;;
78844;SDS011;68195;50.854;2.860;2023-06-26T03:36:18;4.75;;;2.08;;
78844;SDS011;68195;50.854;2.860;2023-06-26T03:38:43;3.50;;;1.40;;
78844;SDS011;68195;50.854;2.860;2023-06-26T03:41:08;4.00;;;1.50;;
78844;SDS011;68195;50.854;2.860;2023-06-26T03:43:34;4.78;;;1.90;;
78844;SDS011;68195;50.854;2.860;2023-06-26T03:45:59;6.80;;;2.50;;
78844;SDS011;68195;50.854;2.860;2023-06-26T03:48:28;4.25;;;1.88;;
78844;SDS011;68195;50.854;2.860;2023-06-26T03:50:55;4.57;;;1.95;;
78844;SDS011;68195;50.854;2.860;2023-06-26T03:53:21;4.28;;;1.45;;
78844;SDS011;68195;50.854;2.860;2023-06-26T03:55:48;5.03;;;1.40;;
78844;SDS011;68195;50.854;2.860;2023-06-26T03:58:14;5.18;;;1.50;;
78844;SDS011;68195;50.854;2.860;2023-06-26T04:00:39;3.22;;;1.55;;
78844;SDS011;68195;50.854;2.860;2023-06-26T04:03:05;3.53;;;1.38;;
78844;SDS011;68195;50.854;2.860;2023-06-26T04:05:36;4.53;;;1.75;;
78844;SDS011;68195;50.854;2.860;2023-06-26T04:08:01;3.63;;;1.30;;
78844;SDS011;68195;50.854;2.860;2023-06-26T04:10:26;4.40;;;1.50;;
78844;SDS011;68195;50.854;2.860;2023-06-26T04:12:52;2.28;;;1.23;;
78844;SDS011;68195;50.854;2.860;2023-06-26T04:15:20;2.33;;;1.30;;
78844;SDS011;68195;50.854;2.860;2023-06-26T04:17:46;3.90;;;1.52;;
78844;SDS011;68195;50.854;2.860;2023-06-26T04:20:11;5.43;;;1.48;;
78844;SDS011;68195;50.854;2.860;2023-06-26T04:22:36;4.43;;;1.30;;
78844;SDS011;68195;50.854;2.860;2023-06-26T04:25:02;2.75;;;1.40;;
78844;SDS011;68195;50.854;2.860;2023-06-26T04:27:28;4.32;;;1.42;;
78844;SDS011;68195;50.854;2.860;2023-06-26T04:29:56;5.78;;;1.27;;
78844;SDS011;68195;50.854;2.860;2023-06-26T04:32:24;2.13;;;1.02;;
78844;SDS011;68195;50.854;2.860;2023-06-26T04:34:49;3.90;;;1.17;;
78844;SDS011;68195;50.854;2.860;2023-06-26T04:37:15;3.67;;;1.33;;
78844;SDS011;68195;50.854;2.860;2023-06-26T04:39:43;3.75;;;1.20;;
78844;SDS011;68195;50.854;2.860;2023-06-26T04:42:09;4.10;;;1.52;;
78844;SDS011;68195;50.854;2.860;2023-06-26T04:44:39;4.10;;;1.23;;
78844;SDS011;68195;50.854;2.860;2023-06-26T04:47:08;3.33;;;1.20;;
78844;SDS011;68195;50.854;2.860;2023-06-26T04:49:34;3.38;;;1.40;;
78844;SDS011;68195;50.854;2.860;2023-06-26T04:52:02;2.45;;;1.10;;
78844;SDS011;68195;50.854;2.860;2023-06-26T04:54:27;3.88;;;1.75;;
78844;SDS011;68195;50.854;2.860;2023-06-26T04:56:57;1.95;;;1.10;;
78844;SDS011;68195;50.854;2.860;2023-06-26T04:59:27;3.30;;;1.33;;
78844;SDS011;68195;50.854;2.860;2023-06-26T05:01:52;4.15;;;1.60;;
78844;SDS011;68195;50.854;2.860;2023-06-26T05:04:18;5.95;;;1.30;;
78844;SDS011;68195;50.854;2.860;2023-06-26T05:06:47;6.50;;;1.30;;
78844;SDS011;68195;50.854;2.860;2023-06-26T05:09:13;2.83;;;1.30;;
78844;SDS011;68195;50.854;2.860;2023-06-26T05:11:38;2.20;;;1.20;;
78844;SDS011;68195;50.854;2.860;2023-06-26T05:14:06;3.88;;;1.23;;
78844;SDS011;68195;50.854;2.860;2023-06-26T05:16:34;4.57;;;1.38;;
78844;SDS011;68195;50.854;2.860;2023-06-26T05:19:02;5.10;;;1.20;;
78844;SDS011;68195;50.854;2.860;2023-06-26T05:21:30;5.35;;;1.45;;
78844;SDS011;68195;50.854;2.860;2023-06-26T05:23:56;2.58;;;1.27;;
78844;SDS011;68195;50.854;2.860;2023-06-26T05:26:25;7.15;;;1.55;;
78844;SDS011;68195;50.854;2.860;2023-06-26T05:28:51;4.88;;;1.60;;
78844;SDS011;68195;50.854;2.860;2023-06-26T05:31:17;3.72;;;1.30;;
78844;SDS011;68195;50.854;2.860;2023-06-26T05:33:43;4.20;;;1.50;;
78844;SDS011;68195;50.854;2.860;2023-06-26T05:36:09;3.85;;;1.75;;
78844;SDS011;68195;50.854;2.860;2023-06-26T05:38:37;4.05;;;1.52;;
78844;SDS011;68195;50.854;2.860;2023-06-26T05:41:02;2.47;;;1.60;;
78844;SDS011;68195;50.854;2.860;2023-06-26T05:43:32;2.45;;;1.38;;
78844;SDS011;68195;50.854;2.860;2023-06-26T05:45:58;3.42;;;1.70;;
78844;SDS011;68195;50.854;2.860;2023-06-26T05:48:23;4.28;;;1.23;;
78844;SDS011;68195;50.854;2.860;2023-06-26T05:50:51;4.20;;;1.20;;
78844;SDS011;68195;50.854;2.860;2023-06-26T05:53:21;7.50;;;1.95;;
78844;SDS011;68195;50.854;2.860;2023-06-26T05:55:47;2.70;;;1.63;;
78844;SDS011;68195;50.854;2.860;2023-06-26T05:58:15;5.40;;;1.65;;
78844;SDS011;68195;50.854;2.860;2023-06-26T06:00:45;4.95;;;1.45;;
78844;SDS011;68195;50.854;2.860;2023-06-26T06:03:14;6.53;;;1.70;;
78844;SDS011;68195;50.854;2.860;2023-06-26T06:05:44;2.78;;;1.50;;
78844;SDS011;68195;50.854;2.860;2023-06-26T06:08:12;2.92;;;1.45;;
78844;SDS011;68195;50.854;2.860;2023-06-26T06:10:37;4.50;;;1.50;;
78844;SDS011;68195;50.854;2.860;2023-06-26T06:13:05;3.80;;;1.58;;
78844;SDS011;68195;50.854;2.860;2023-06-26T06:15:30;3.78;;;2.30;;
78844;SDS011;68195;50.854;2.860;2023-06-26T06:17:55;2.38;;;1.60;;
78844;SDS011;68195;50.854;2.860;2023-06-26T06:20:21;6.28;;;1.80;;
78844;SDS011;68195;50.854;2.860;2023-06-26T06:22:46;3.70;;;1.70;;
78844;SDS011;68195;50.854;2.860;2023-06-26T06:25:14;3.50;;;1.55;;
78844;SDS011;68195;50.854;2.860;2023-06-26T06:27:40;3.55;;;2.13;;
78844;SDS011;68195;50.854;2.860;2023-06-26T06:30:08;2.88;;;1.48;;
78844;SDS011;68195;50.854;2.860;2023-06-26T06:32:37;6.60;;;1.90;;
78844;SDS011;68195;50.854;2.860;2023-06-26T06:35:02;4.53;;;1.60;;
78844;SDS011;68195;50.854;2.860;2023-06-26T06:37:37;5.63;;;1.70;;
78844;SDS011;68195;50.854;2.860;2023-06-26T06:40:03;5.55;;;2.42;;
78844;SDS011;68195;50.854;2.860;2023-06-26T06:42:32;3.03;;;1.73;;
78844;SDS011;68195;50.854;2.860;2023-06-26T06:44:58;3.45;;;2.22;;
78844;SDS011;68195;50.854;2.860;2023-06-26T06:47:26;3.72;;;1.60;;
78844;SDS011;68195;50.854;2.860;2023-06-26T06:49:54;3.20;;;1.70;;
78844;SDS011;68195;50.854;2.860;2023-06-26T06:52:26;5.78;;;1.90;;
78844;SDS011;68195;50.854;2.860;2023-06-26T06:54:55;3.55;;;1.80;;
78844;SDS011;68195;50.854;2.860;2023-06-26T06:57:30;4.25;;;1.45;;
78844;SDS011;68195;50.854;2.860;2023-06-26T07:00:01;4.35;;;1.75;;
78844;SDS011;68195;50.854;2.860;2023-06-26T07:02:29;5.55;;;1.90;;
78844;SDS011;68195;50.854;2.860;2023-06-26T07:04:55;3.70;;;1.50;;
78844;SDS011;68195;50.854;2.860;2023-06-26T07:07:20;4.20;;;1.67;;
78844;SDS011;68195;50.854;2.860;2023-06-26T07:09:45;4.82;;;1.45;;
78844;SDS011;68195;50.854;2.860;2023-06-26T07:12:11;4.75;;;1.65;;
78844;SDS011;68195;50.854;2.860;2023-06-26T07:14:36;4.95;;;1.58;;
78844;SDS011;68195;50.854;2.860;2023-06-26T07:17:02;3.58;;;1.30;;
78844;SDS011;68195;50.854;2.860;2023-06-26T07:19:30;4.40;;;2.00;;
78844;SDS011;68195;50.854;2.860;2023-06-26T07:21:57;7.47;;;2.00;;
78844;SDS011;68195;50.854;2.860;2023-06-26T07:24:28;4.50;;;1.73;;
78844;SDS011;68195;50.854;2.860;2023-06-26T07:26:53;3.60;;;1.67;;
78844;SDS011;68195;50.854;2.860;2023-06-26T07:29:19;3.85;;;2.05;;
78844;SDS011;68195;50.854;2.860;2023-06-26T07:31:44;4.50;;;1.80;;
78844;SDS011;68195;50.854;2.860;2023-06-26T07:34:10;4.03;;;2.00;;
78844;SDS011;68195;50.854;2.860;2023-06-26T07:36:35;4.65;;;2.13;;
78844;SDS011;68195;50.854;2.860;2023-06-26T07:39:01;3.33;;;1.70;;
78844;SDS011;68195;50.854;2.860;2023-06-26T07:41:26;5.60;;;1.52;;
78844;SDS011;68195;50.854;2.860;2023-06-26T07:43:54;3.90;;;2.00;;
78844;SDS011;68195;50.854;2.860;2023-06-26T07:46:19;2.63;;;1.55;;
78844;SDS011;68195;50.854;2.860;2023-06-26T07:48:45;4.00;;;1.95;;
78844;SDS011;68195;50.854;2.860;2023-06-26T07:51:10;4.05;;;1.80;;
78844;SDS011;68195;50.854;2.860;2023-06-26T07:53:38;4.60;;;1.70;;
78844;SDS011;68195;50.854;2.860;2023-06-26T07:56:03;6.97;;;2.13;;
78844;SDS011;68195;50.854;2.860;2023-06-26T07:58:31;4.57;;;1.60;;
78844;SDS011;68195;50.854;2.860;2023-06-26T08:00:59;3.25;;;1.95;;
78844;SDS011;68195;50.854;2.860;2023-06-26T08:03:24;4.55;;;1.70;;
78844;SDS011;68195;50.854;2.860;2023-06-26T08:05:52;5.43;;;2.10;;
78844;SDS011;68195;50.854;2.860;2023-06-26T08:08:17;6.38;;;1.98;;
78844;SDS011;68195;50.854;2.860;2023-06-26T08:10:43;4.72;;;1.70;;
78844;SDS011;68195;50.854;2.860;2023-06-26T08:13:08;3.35;;;1.42;;
78844;SDS011;68195;50.854;2.860;2023-06-26T08:15:34;4.03;;;1.92;;
78844;SDS011;68195;50.854;2.860;2023-06-26T08:17:59;5.90;;;1.80;;
78844;SDS011;68195;50.854;2.860;2023-06-26T08:20:24;3.22;;;1.33;;
78844;SDS011;68195;50.854;2.860;2023-06-26T08:22:52;4.82;;;1.58;;
78844;SDS011;68195;50.854;2.860;2023-06-26T08:25:19;3.88;;;1.90;;
78844;SDS011;68195;50.854;2.860;2023-06-26T08:27:45;4.35;;;1.45;;
78844;SDS011;68195;50.854;2.860;2023-06-26T08:30:10;5.05;;;2.20;;
78844;SDS011;68195;50.854;2.860;2023-06-26T08:32:36;3.58;;;1.80;;
78844;SDS011;68195;50.854;2.860;2023-06-26T08:35:02;2.33;;;1.40;;
78844;SDS011;68195;50.854;2.860;2023-06-26T08:37:27;4.43;;;2.20;;
78844;SDS011;68195;50.854;2.860;2023-06-26T08:39:59;4.97;;;1.50;;
78844;SDS011;68195;50.854;2.860;2023-06-26T08:42:25;3.95;;;1.70;;
78844;SDS011;68195;50.854;2.860;2023-06-26T08:44:51;3.63;;;1.58;;
78844;SDS011;68195;50.854;2.860;2023-06-26T08:47:17;3.20;;;1.40;;
78844;SDS011;68195;50.854;2.860;2023-06-26T08:49:47;4.28;;;1.80;;
78844;SDS011;68195;50.854;2.860;2023-06-26T08:54:54;5.63;;;1.80;;
78844;SDS011;68195;50.854;2.860;2023-06-26T08:57:23;1.90;;;1.50;;
78844;SDS011;68195;50.854;2.860;2023-06-26T08:59:51;6.28;;;1.80;;
78844;SDS011;68195;50.854;2.860;2023-06-26T09:02:17;3.35;;;2.17;;
78844;SDS011;68195;50.854;2.860;2023-06-26T09:04:43;3.90;;;1.55;;
78844;SDS011;68195;50.854;2.860;2023-06-26T09:07:08;5.50;;;1.88;;
78844;SDS011;68195;50.854;2.860;2023-06-26T09:09:34;5.78;;;1.70;;
78844;SDS011;68195;50.854;2.860;2023-06-26T09:12:03;5.70;;;1.95;;
78844;SDS011;68195;50.854;2.860;2023-06-26T09:14:29;1.95;;;1.30;;
78844;SDS011;68195;50.854;2.860;2023-06-26T09:16:55;4.60;;;1.90;;
78844;SDS011;68195;50.854;2.860;2023-06-26T09:19:20;3.28;;;1.55;;
78844;SDS011;68195;50.854;2.860;2023-06-26T09:21:46;4.70;;;1.77;;
78844;SDS011;68195;50.854;2.860;2023-06-26T09:24:17;2.38;;;1.48;;
78844;SDS011;68195;50.854;2.860;2023-06-26T09:26:43;5.63;;;2.20;;
78844;SDS011;68195;50.854;2.860;2023-06-26T09:29:09;5.03;;;1.60;;
78844;SDS011;68195;50.854;2.860;2023-06-26T09:31:38;2.92;;;1.58;;
78844;SDS011;68195;50.854;2.860;2023-06-26T09:34:04;5.82;;;1.80;;
78844;SDS011;68195;50.854;2.860;2023-06-26T09:36:31;4.47;;;1.60;;
78844;SDS011;68195;50.854;2.860;2023-06-26T09:39:01;5.55;;;1.90;;
78844;SDS011;68195;50.854;2.860;2023-06-26T09:41:33;2.70;;;1.33;;
78844;SDS011;68195;50.854;2.860;2023-06-26T09:44:01;3.65;;;1.35;;
78844;SDS011;68195;50.854;2.860;2023-06-26T09:46:28;5.13;;;1.92;;
78844;SDS011;68195;50.854;2.860;2023-06-26T09:51:25;5.97;;;1.48;;
78844;SDS011;68195;50.854;2.860;2023-06-26T09:53:51;3.70;;;1.50;;
78844;SDS011;68195;50.854;2.860;2023-06-26T09:56:19;5.10;;;1.73;;
78844;SDS011;68195;50.854;2.860;2023-06-26T09:58:44;5.22;;;2.00;;
78844;SDS011;68195;50.854;2.860;2023-06-26T10:01:10;2.10;;;1.50;;
78844;SDS011;68195;50.854;2.860;2023-06-26T10:03:35;4.93;;;1.50;;
78844;SDS011;68195;50.854;2.860;2023-06-26T10:06:01;4.20;;;1.58;;
78844;SDS011;68195;50.854;2.860;2023-06-26T10:08:28;5.15;;;1.42;;
78844;SDS011;68195;50.854;2.860;2023-06-26T10:10:54;3.20;;;1.25;;
78844;SDS011;68195;50.854;2.860;2023-06-26T10:13:22;3.00;;;1.70;;
78844;SDS011;68195;50.854;2.860;2023-06-26T10:16:05;5.05;;;1.30;;
78844;SDS011;68195;50.854;2.860;2023-06-26T10:18:33;4.95;;;1.55;;
78844;SDS011;68195;50.854;2.860;2023-06-26T10:21:03;3.40;;;1.40;;
78844;SDS011;68195;50.854;2.860;2023-06-26T10:23:30;4.78;;;1.48;;
78844;SDS011;68195;50.854;2.860;2023-06-26T10:25:58;3.80;;;1.60;;
78844;SDS011;68195;50.854;2.860;2023-06-26T10:28:26;6.32;;;1.50;;
78844;SDS011;68195;50.854;2.860;2023-06-26T10:30:57;4.43;;;1.33;;
78844;SDS011;68195;50.854;2.860;2023-06-26T10:33:23;4.60;;;1.42;;
78844;SDS011;68195;50.854;2.860;2023-06-26T10:35:49;3.75;;;1.52;;
78844;SDS011;68195;50.854;2.860;2023-06-26T10:38:17;6.03;;;1.75;;
78844;SDS011;68195;50.854;2.860;2023-06-26T10:40:46;4.75;;;1.80;;
78844;SDS011;68195;50.854;2.860;2023-06-26T10:43:16;5.97;;;1.50;;
78844;SDS011;68195;50.854;2.860;2023-06-26T10:45:46;2.45;;;1.10;;
78844;SDS011;68195;50.854;2.860;2023-06-26T10:48:21;5.43;;;1.40;;
78844;SDS011;68195;50.854;2.860;2023-06-26T10:50:48;2.90;;;1.15;;
78844;SDS011;68195;50.854;2.860;2023-06-26T10:55:59;2.80;;;1.58;;
78844;SDS011;68195;50.854;2.860;2023-06-26T10:58:27;3.70;;;1.52;;
78844;SDS011;68195;50.854;2.860;2023-06-26T11:03:37;6.28;;;1.63;;
78844;SDS011;68195;50.854;2.860;2023-06-26T11:06:09;4.07;;;1.60;;
78844;SDS011;68195;50.854;2.860;2023-06-26T11:11:13;4.25;;;1.27;;
78844;SDS011;68195;50.854;2.860;2023-06-26T11:13:41;3.83;;;1.40;;
78844;SDS011;68195;50.854;2.860;2023-06-26T11:16:10;5.75;;;1.67;;
78844;SDS011;68195;50.854;2.860;2023-06-26T11:18:36;2.20;;;1.40;;
78844;SDS011;68195;50.854;2.860;2023-06-26T11:21:09;3.55;;;1.60;;
78844;SDS011;68195;50.854;2.860;2023-06-26T11:23:39;4.05;;;1.23;;
78844;SDS011;68195;50.854;2.860;2023-06-26T11:26:15;3.38;;;1.40;;
78844;SDS011;68195;50.854;2.860;2023-06-26T11:28:47;2.30;;;1.10;;
78844;SDS011;68195;50.854;2.860;2023-06-26T11:31:27;2.13;;;1.40;;
78844;SDS011;68195;50.854;2.860;2023-06-26T11:33:58;4.07;;;1.33;;
78844;SDS011;68195;50.854;2.860;2023-06-26T11:36:25;3.80;;;1.40;;
78844;SDS011;68195;50.854;2.860;2023-06-26T11:38:52;4.15;;;1.42;;
78844;SDS011;68195;50.854;2.860;2023-06-26T11:41:21;2.35;;;1.08;;
78844;SDS011;68195;50.854;2.860;2023-06-26T11:43:47;3.08;;;1.50;;
78844;SDS011;68195;50.854;2.860;2023-06-26T11:46:12;3.92;;;1.30;;
78844;SDS011;68195;50.854;2.860;2023-06-26T11:48:43;2.47;;;1.23;;
78844;SDS011;68195;50.854;2.860;2023-06-26T11:51:09;3.33;;;1.42;;
78844;SDS011;68195;50.854;2.860;2023-06-26T11:53:40;1.63;;;1.25;;
78844;SDS011;68195;50.854;2.860;2023-06-26T12:01:40;2.78;;;1.20;;
78844;SDS011;68195;50.854;2.860;2023-06-26T12:04:08;3.20;;;1.33;;
78844;SDS011;68195;50.854;2.860;2023-06-26T12:06:35;4.35;;;1.67;;
78844;SDS011;68195;50.854;2.860;2023-06-26T12:09:05;3.80;;;1.50;;
78844;SDS011;68195;50.854;2.860;2023-06-26T12:11:32;2.13;;;1.15;;
78844;SDS011;68195;50.854;2.860;2023-06-26T12:14:03;3.28;;;1.30;;
78844;SDS011;68195;50.854;2.860;2023-06-26T12:16:30;4.47;;;1.40;;
78844;SDS011;68195;50.854;2.860;2023-06-26T12:18:58;2.33;;;1.25;;
78844;SDS011;68195;50.854;2.860;2023-06-26T12:21:28;2.10;;;1.10;;
78844;SDS011;68195;50.854;2.860;2023-06-26T12:24:02;4.10;;;1.25;;
78844;SDS011;68195;50.854;2.860;2023-06-26T12:26:31;3.58;;;1.35;;
78844;SDS011;68195;50.854;2.860;2023-06-26T12:31:30;3.47;;;1.52;;
78844;SDS011;68195;50.854;2.860;2023-06-26T12:33:56;4.72;;;1.50;;
78844;SDS011;68195;50.854;2.860;2023-06-26T12:36:22;3.50;;;1.60;;
78844;SDS011;68195;50.854;2.860;2023-06-26T12:38:48;4.38;;;1.35;;
78844;SDS011;68195;50.854;2.860;2023-06-26T12:41:14;2.90;;;1.42;;
78844;SDS011;68195;50.854;2.860;2023-06-26T12:43:42;3.05;;;1.23;;
78844;SDS011;68195;50.854;2.860;2023-06-26T12:46:08;3.22;;;1.33;;
78844;SDS011;68195;50.854;2.860;2023-06-26T12:48:43;4.22;;;1.52;;
78844;SDS011;68195;50.854;2.860;2023-06-26T12:51:11;3.03;;;1.90;;
78844;SDS011;68195;50.854;2.860;2023-06-26T12:53:41;4.13;;;1.38;;
78844;SDS011;68195;50.854;2.860;2023-06-26T12:56:07;6.50;;;1.40;;
78844;SDS011;68195;50.854;2.860;2023-06-26T12:58:33;3.33;;;1.52;;
78844;SDS011;68195;50.854;2.860;2023-06-26T13:00:59;6.45;;;1.63;;
78844;SDS011;68195;50.854;2.860;2023-06-26T13:03:28;3.53;;;1.38;;
78844;SDS011;68195;50.854;2.860;2023-06-26T13:05:58;3.13;;;1.40;;
78844;SDS011;68195;50.854;2.860;2023-06-26T13:08:23;4.22;;;1.45;;
78844;SDS011;68195;50.854;2.860;2023-06-26T13:10:49;5.50;;;1.80;;
78844;SDS011;68195;50.854;2.860;2023-06-26T13:13:14;4.43;;;1.52;;
78844;SDS011;68195;50.854;2.860;2023-06-26T13:15:40;3.90;;;1.73;;
78844;SDS011;68195;50.854;2.860;2023-06-26T13:18:05;3.28;;;1.27;;
78844;SDS011;68195;50.854;2.860;2023-06-26T13:20:31;4.90;;;1.45;;
78844;SDS011;68195;50.854;2.860;2023-06-26T13:22:56;3.72;;;1.58;;
78844;SDS011;68195;50.854;2.860;2023-06-26T13:25:22;3.90;;;1.40;;
78844;SDS011;68195;50.854;2.860;2023-06-26T13:27:48;3.55;;;1.42;;
78844;SDS011;68195;50.854;2.860;2023-06-26T13:30:14;4.57;;;1.40;;
78844;SDS011;68195;50.854;2.860;2023-06-26T13:32:41;2.63;;;1.58;;
78844;SDS011;68195;50.854;2.860;2023-06-26T13:35:07;5.50;;;1.40;;
78844;SDS011;68195;50.854;2.860;2023-06-26T13:37:36;3.50;;;1.90;;
78844;SDS011;68195;50.854;2.860;2023-06-26T13:40:02;2.03;;;1.38;;
78844;SDS011;68195;50.854;2.860;2023-06-26T13:42:32;2.78;;;1.35;;
78844;SDS011;68195;50.854;2.860;2023-06-26T13:44:57;3.78;;;1.60;;
78844;SDS011;68195;50.854;2.860;2023-06-26T13:47:23;3.83;;;1.48;;
78844;SDS011;68195;50.854;2.860;2023-06-26T13:49:53;4.50;;;1.70;;
78844;SDS011;68195;50.854;2.860;2023-06-26T13:52:23;2.72;;;1.48;;
78844;SDS011;68195;50.854;2.860;2023-06-26T13:54:48;4.72;;;1.58;;
78844;SDS011;68195;50.854;2.860;2023-06-26T13:57:16;5.38;;;1.42;;
78844;SDS011;68195;50.854;2.860;2023-06-26T13:59:42;2.55;;;1.27;;
78844;SDS011;68195;50.854;2.860;2023-06-26T14:02:08;4.30;;;1.60;;
78844;SDS011;68195;50.854;2.860;2023-06-26T14:04:35;3.72;;;1.50;;
78844;SDS011;68195;50.854;2.860;2023-06-26T14:07:02;4.78;;;1.23;;
78844;SDS011;68195;50.854;2.860;2023-06-26T14:09:27;5.60;;;1.67;;
78844;SDS011;68195;50.854;2.860;2023-06-26T14:11:53;2.72;;;1.42;;
78844;SDS011;68195;50.854;2.860;2023-06-26T14:14:18;5.30;;;1.40;;
78844;SDS011;68195;50.854;2.860;2023-06-26T14:16:44;2.92;;;1.38;;
78844;SDS011;68195;50.854;2.860;2023-06-26T14:19:09;3.75;;;2.63;;
78844;SDS011;68195;50.854;2.860;2023-06-26T14:21:39;3.50;;;1.75;;
78844;SDS011;68195;50.854;2.860;2023-06-26T14:24:05;4.53;;;1.90;;
78844;SDS011;68195;50.854;2.860;2023-06-26T14:26:31;4.07;;;1.40;;
78844;SDS011;68195;50.854;2.860;2023-06-26T14:29:00;2.90;;;1.48;;
78844;SDS011;68195;50.854;2.860;2023-06-26T14:31:27;2.70;;;1.63;;
78844;SDS011;68195;50.854;2.860;2023-06-26T14:33:55;4.45;;;1.52;;
78844;SDS011;68195;50.854;2.860;2023-06-26T14:36:20;5.15;;;1.58;;
78844;SDS011;68195;50.854;2.860;2023-06-26T14:38:46;3.38;;;1.85;;
78844;SDS011;68195;50.854;2.860;2023-06-26T14:41:11;4.53;;;1.40;;
78844;SDS011;68195;50.854;2.860;2023-06-26T14:43:38;2.90;;;1.50;;
78844;SDS011;68195;50.854;2.860;2023-06-26T14:46:03;5.07;;;1.73;;
78844;SDS011;68195;50.854;2.860;2023-06-26T14:48:29;3.65;;;1.73;;
78844;SDS011;68195;50.854;2.860;2023-06-26T14:50:54;5.32;;;1.60;;
78844;SDS011;68195;50.854;2.860;2023-06-26T14:53:25;3.72;;;1.63;;
78844;SDS011;68195;50.854;2.860;2023-06-26T14:55:52;7.15;;;1.45;;
78844;SDS011;68195;50.854;2.860;2023-06-26T14:58:18;3.05;;;1.60;;
78844;SDS011;68195;50.854;2.860;2023-06-26T15:00:43;4.60;;;2.03;;
78844;SDS011;68195;50.854;2.860;2023-06-26T15:03:08;6.80;;;1.67;;
78844;SDS011;68195;50.854;2.860;2023-06-26T15:05:36;3.58;;;1.65;;
78844;SDS011;68195;50.854;2.860;2023-06-26T15:08:02;5.55;;;2.00;;
78844;SDS011;68195;50.854;2.860;2023-06-26T15:10:27;3.42;;;1.73;;
78844;SDS011;68195;50.854;2.860;2023-06-26T15:12:57;6.97;;;1.85;;